sensor_id;sensor_type;location;lat;lon;timestamp;P1;durP1;ratioP1;P2;durP2;ratioP2
74324;SDS011;62741;51.948;7.152;2023-01-01T00:01:37;11.10;;;3.83;;
74324;SDS011;62741;51.948;7.152;2023-01-01T00:04:08;10.88;;;3.67;;
74324;SDS011;62741;51.948;7.152;2023-01-01T00:06:38;7.38;;;3.60;;
74324;SDS011;62741;51.948;7.152;2023-01-01T00:09:07;10.82;;;3.85;;
74324;SDS011;62741;51.948;7.152;2023-01-01T00:11:52;10.95;;;5.38;;
74324;SDS011;62741;51.948;7.152;2023-01-01T00:14:19;12.95;;;4.57;;
74324;SDS011;62741;51.948;7.152;2023-01-01T00:16:46;14.75;;;5.10;;
74324;SDS011;62741;51.948;7.152;2023-01-01T00:19:13;10.52;;;4.93;;
74324;SDS011;62741;51.948;7.152;2023-01-01T00:21:40;12.45;;;4.75;;
74324;SDS011;62741;51.948;7.152;2023-01-01T00:24:08;13.02;;;4.28;;
74324;SDS011;62741;51.948;7.152;2023-01-01T00:26:35;10.40;;;4.80;;
74324;SDS011;62741;51.948;7.152;2023-01-01T00:29:03;10.27;;;5.10;;
74324;SDS011;62741;51.948;7.152;2023-01-01T00:31:31;13.15;;;5.57;;
74324;SDS011;62741;51.948;7.152;2023-01-01T00:33:58;13.30;;;5.70;;
74324;SDS011;62741;51.948;7.152;2023-01-01T00:36:25;9.98;;;4.63;;
74324;SDS011;62741;51.948;7.152;2023-01-01T00:38:53;16.15;;;5.57;;
74324;SDS011;62741;51.948;7.152;2023-01-01T00:41:22;13.70;;;5.45;;
74324;SDS011;62741;51.948;7.152;2023-01-01T00:43:50;11.30;;;5.32;;
74324;SDS011;62741;51.948;7.152;2023-01-01T00:46:17;11.55;;;5.05;;
74324;SDS011;62741;51.948;7.152;2023-01-01T00:48:44;13.73;;;5.43;;
74324;SDS011;62741;51.948;7.152;2023-01-01T00:51:11;18.63;;;5.03;;
74324;SDS011;62741;51.948;7.152;2023-01-01T00:53:38;11.63;;;5.43;;
74324;SDS011;62741;51.948;7.152;2023-01-01T00:56:06;13.45;;;5.60;;
74324;SDS011;62741;51.948;7.152;2023-01-01T00:58:34;12.30;;;5.00;;
74324;SDS011;62741;51.948;7.152;2023-01-01T01:01:01;14.15;;;4.78;;
74324;SDS011;62741;51.948;7.152;2023-01-01T01:03:28;10.77;;;4.88;;
74324;SDS011;62741;51.948;7.152;2023-01-01T01:05:56;8.68;;;5.88;;
74324;SDS011;62741;51.948;7.152;2023-01-01T01:08:33;10.50;;;5.38;;
74324;SDS011;62741;51.948;7.152;2023-01-01T01:11:03;12.63;;;5.28;;
74324;SDS011;62741;51.948;7.152;2023-01-01T01:13:31;9.80;;;6.45;;
74324;SDS011;62741;51.948;7.152;2023-01-01T01:16:00;10.00;;;5.53;;
74324;SDS011;62741;51.948;7.152;2023-01-01T01:18:32;9.65;;;5.35;;
74324;SDS011;62741;51.948;7.152;2023-01-01T01:20:59;15.57;;;5.80;;
74324;SDS011;62741;51.948;7.152;2023-01-01T01:23:26;12.68;;;6.28;;
74324;SDS011;62741;51.948;7.152;2023-01-01T01:25:53;10.10;;;6.13;;
74324;SDS011;62741;51.948;7.152;2023-01-01T01:28:20;12.30;;;5.75;;
74324;SDS011;62741;51.948;7.152;2023-01-01T01:30:47;9.60;;;4.75;;
74324;SDS011;62741;51.948;7.152;2023-01-01T01:33:16;10.82;;;6.00;;
74324;SDS011;62741;51.948;7.152;2023-01-01T01:35:48;9.10;;;5.28;;
74324;SDS011;62741;51.948;7.152;2023-01-01T01:38:15;12.07;;;5.70;;
74324;SDS011;62741;51.948;7.152;2023-01-01T01:40:43;9.00;;;5.90;;
74324;SDS011;62741;51.948;7.152;2023-01-01T01:43:18;12.13;;;5.38;;
74324;SDS011;62741;51.948;7.152;2023-01-01T01:45:49;9.52;;;5.70;;
74324;SDS011;62741;51.948;7.152;2023-01-01T01:48:21;9.57;;;5.57;;
74324;SDS011;62741;51.948;7.152;2023-01-01T01:50:50;10.60;;;6.55;;
74324;SDS011;62741;51.948;7.152;2023-01-01T01:53:20;10.02;;;5.80;;
74324;SDS011;62741;51.948;7.152;2023-01-01T01:55:52;10.07;;;5.90;;
74324;SDS011;62741;51.948;7.152;2023-01-01T01:58:26;12.30;;;6.78;;
74324;SDS011;62741;51.948;7.152;2023-01-01T02:00:56;8.88;;;6.22;;
74324;SDS011;62741;51.948;7.152;2023-01-01T02:03:27;7.70;;;5.07;;
74324;SDS011;62741;51.948;7.152;2023-01-01T02:06:06;10.90;;;5.93;;
74324;SDS011;62741;51.948;7.152;2023-01-01T02:08:33;11.47;;;5.40;;
74324;SDS011;62741;51.948;7.152;2023-01-01T02:11:02;9.15;;;6.43;;
74324;SDS011;62741;51.948;7.152;2023-01-01T02:13:30;10.73;;;5.93;;
74324;SDS011;62741;51.948;7.152;2023-01-01T02:15:59;8.88;;;5.85;;
74324;SDS011;62741;51.948;7.152;2023-01-01T02:18:38;9.13;;;5.95;;
74324;SDS011;62741;51.948;7.152;2023-01-01T02:21:16;11.38;;;5.68;;
74324;SDS011;62741;51.948;7.152;2023-01-01T02:23:55;12.75;;;5.88;;
74324;SDS011;62741;51.948;7.152;2023-01-01T02:26:45;10.13;;;5.88;;
74324;SDS011;62741;51.948;7.152;2023-01-01T02:32:18;9.63;;;5.63;;
74324;SDS011;62741;51.948;7.152;2023-01-01T02:34:51;8.70;;;5.63;;
74324;SDS011;62741;51.948;7.152;2023-01-01T02:37:44;9.07;;;5.57;;
74324;SDS011;62741;51.948;7.152;2023-01-01T02:40:13;9.77;;;5.75;;
74324;SDS011;62741;51.948;7.152;2023-01-01T02:42:43;10.43;;;6.13;;
74324;SDS011;62741;51.948;7.152;2023-01-01T02:45:12;10.13;;;6.30;;
74324;SDS011;62741;51.948;7.152;2023-01-01T02:47:40;8.30;;;4.82;;
74324;SDS011;62741;51.948;7.152;2023-01-01T02:50:09;8.02;;;5.55;;
74324;SDS011;62741;51.948;7.152;2023-01-01T02:52:47;9.15;;;5.18;;
74324;SDS011;62741;51.948;7.152;2023-01-01T02:55:34;6.95;;;4.90;;
74324;SDS011;62741;51.948;7.152;2023-01-01T02:58:16;10.05;;;5.68;;
74324;SDS011;62741;51.948;7.152;2023-01-01T03:01:14;9.43;;;5.18;;
74324;SDS011;62741;51.948;7.152;2023-01-01T03:03:53;8.20;;;5.30;;
74324;SDS011;62741;51.948;7.152;2023-01-01T03:06:32;7.70;;;4.90;;
74324;SDS011;62741;51.948;7.152;2023-01-01T03:09:11;8.75;;;5.00;;
74324;SDS011;62741;51.948;7.152;2023-01-01T03:14:26;7.15;;;4.07;;
74324;SDS011;62741;51.948;7.152;2023-01-01T03:17:09;8.82;;;4.40;;
74324;SDS011;62741;51.948;7.152;2023-01-01T03:19:54;9.43;;;4.68;;
74324;SDS011;62741;51.948;7.152;2023-01-01T03:22:26;8.05;;;4.50;;
74324;SDS011;62741;51.948;7.152;2023-01-01T03:24:59;8.00;;;4.90;;
74324;SDS011;62741;51.948;7.152;2023-01-01T03:27:33;9.50;;;4.20;;
74324;SDS011;62741;51.948;7.152;2023-01-01T03:30:07;9.13;;;4.40;;
74324;SDS011;62741;51.948;7.152;2023-01-01T03:32:46;10.23;;;4.85;;
74324;SDS011;62741;51.948;7.152;2023-01-01T03:35:26;7.03;;;4.30;;
74324;SDS011;62741;51.948;7.152;2023-01-01T03:38:00;6.50;;;4.75;;
74324;SDS011;62741;51.948;7.152;2023-01-01T03:40:32;5.97;;;3.63;;
74324;SDS011;62741;51.948;7.152;2023-01-01T03:43:05;8.45;;;4.93;;
74324;SDS011;62741;51.948;7.152;2023-01-01T03:45:45;7.32;;;4.20;;
74324;SDS011;62741;51.948;7.152;2023-01-01T03:48:17;9.18;;;4.47;;
74324;SDS011;62741;51.948;7.152;2023-01-01T03:53:25;6.45;;;3.20;;
74324;SDS011;62741;51.948;7.152;2023-01-01T03:56:06;7.35;;;3.83;;
74324;SDS011;62741;51.948;7.152;2023-01-01T04:01:19;6.22;;;3.47;;
74324;SDS011;62741;51.948;7.152;2023-01-01T04:03:54;7.07;;;3.70;;
74324;SDS011;62741;51.948;7.152;2023-01-01T04:06:26;5.70;;;3.60;;
74324;SDS011;62741;51.948;7.152;2023-01-01T04:08:54;4.80;;;3.10;;
74324;SDS011;62741;51.948;7.152;2023-01-01T04:11:27;7.57;;;3.58;;
74324;SDS011;62741;51.948;7.152;2023-01-01T04:14:31;5.10;;;2.97;;
74324;SDS011;62741;51.948;7.152;2023-01-01T04:17:01;6.97;;;2.75;;
74324;SDS011;62741;51.948;7.152;2023-01-01T04:19:32;7.68;;;3.90;;
74324;SDS011;62741;51.948;7.152;2023-01-01T04:21:59;6.78;;;3.50;;
74324;SDS011;62741;51.948;7.152;2023-01-01T04:24:32;5.15;;;2.90;;
74324;SDS011;62741;51.948;7.152;2023-01-01T04:26:59;5.68;;;2.97;;
74324;SDS011;62741;51.948;7.152;2023-01-01T04:29:26;6.20;;;3.20;;
74324;SDS011;62741;51.948;7.152;2023-01-01T04:31:58;4.72;;;2.70;;
74324;SDS011;62741;51.948;7.152;2023-01-01T04:34:26;5.60;;;3.00;;
74324;SDS011;62741;51.948;7.152;2023-01-01T04:36:54;6.25;;;3.30;;
74324;SDS011;62741;51.948;7.152;2023-01-01T04:39:21;5.55;;;3.10;;
74324;SDS011;62741;51.948;7.152;2023-01-01T04:41:48;5.10;;;3.00;;
74324;SDS011;62741;51.948;7.152;2023-01-01T04:44:15;5.95;;;3.08;;
74324;SDS011;62741;51.948;7.152;2023-01-01T04:46:42;5.63;;;2.45;;
74324;SDS011;62741;51.948;7.152;2023-01-01T04:49:14;5.32;;;2.63;;
74324;SDS011;62741;51.948;7.152;2023-01-01T04:51:47;6.00;;;2.90;;
74324;SDS011;62741;51.948;7.152;2023-01-01T04:54:17;5.28;;;2.70;;
74324;SDS011;62741;51.948;7.152;2023-01-01T04:59:11;3.67;;;2.08;;
74324;SDS011;62741;51.948;7.152;2023-01-01T05:01:38;4.45;;;2.30;;
74324;SDS011;62741;51.948;7.152;2023-01-01T05:04:05;4.32;;;2.05;;
74324;SDS011;62741;51.948;7.152;2023-01-01T05:06:32;3.92;;;2.28;;
74324;SDS011;62741;51.948;7.152;2023-01-01T05:08:59;6.18;;;2.15;;
74324;SDS011;62741;51.948;7.152;2023-01-01T05:14:11;4.07;;;2.28;;
74324;SDS011;62741;51.948;7.152;2023-01-01T05:16:38;4.28;;;2.33;;
74324;SDS011;62741;51.948;7.152;2023-01-01T05:19:06;4.32;;;2.40;;
74324;SDS011;62741;51.948;7.152;2023-01-01T05:21:35;6.35;;;2.30;;
74324;SDS011;62741;51.948;7.152;2023-01-01T05:24:05;4.07;;;2.40;;
74324;SDS011;62741;51.948;7.152;2023-01-01T05:26:35;4.30;;;2.42;;
74324;SDS011;62741;51.948;7.152;2023-01-01T05:29:05;6.28;;;2.95;;
74324;SDS011;62741;51.948;7.152;2023-01-01T05:31:33;3.75;;;2.03;;
74324;SDS011;62741;51.948;7.152;2023-01-01T05:34:01;5.00;;;2.45;;
74324;SDS011;62741;51.948;7.152;2023-01-01T05:39:02;4.50;;;2.10;;
74324;SDS011;62741;51.948;7.152;2023-01-01T05:41:30;5.53;;;2.60;;
74324;SDS011;62741;51.948;7.152;2023-01-01T05:44:00;4.10;;;2.10;;
74324;SDS011;62741;51.948;7.152;2023-01-01T05:46:32;5.20;;;2.47;;
74324;SDS011;62741;51.948;7.152;2023-01-01T05:48:59;3.97;;;2.17;;
74324;SDS011;62741;51.948;7.152;2023-01-01T05:51:27;4.30;;;1.85;;
74324;SDS011;62741;51.948;7.152;2023-01-01T05:56:24;6.35;;;2.20;;
74324;SDS011;62741;51.948;7.152;2023-01-01T05:58:52;5.90;;;2.00;;
74324;SDS011;62741;51.948;7.152;2023-01-01T06:01:20;4.03;;;2.13;;
74324;SDS011;62741;51.948;7.152;2023-01-01T06:03:51;5.47;;;1.67;;
74324;SDS011;62741;51.948;7.152;2023-01-01T06:06:20;5.75;;;2.15;;
74324;SDS011;62741;51.948;7.152;2023-01-01T06:08:50;4.22;;;1.80;;
74324;SDS011;62741;51.948;7.152;2023-01-01T06:11:20;3.50;;;1.80;;
74324;SDS011;62741;51.948;7.152;2023-01-01T06:13:50;5.05;;;2.10;;
74324;SDS011;62741;51.948;7.152;2023-01-01T06:16:18;4.13;;;1.65;;
74324;SDS011;62741;51.948;7.152;2023-01-01T06:18:45;3.45;;;1.63;;
74324;SDS011;62741;51.948;7.152;2023-01-01T06:21:14;3.42;;;1.65;;
74324;SDS011;62741;51.948;7.152;2023-01-01T06:23:44;3.53;;;2.10;;
74324;SDS011;62741;51.948;7.152;2023-01-01T06:26:18;4.72;;;2.35;;
74324;SDS011;62741;51.948;7.152;2023-01-01T06:28:52;4.63;;;2.10;;
74324;SDS011;62741;51.948;7.152;2023-01-01T06:31:20;3.95;;;1.85;;
74324;SDS011;62741;51.948;7.152;2023-01-01T06:33:48;3.42;;;1.80;;
74324;SDS011;62741;51.948;7.152;2023-01-01T06:36:18;3.67;;;1.77;;
74324;SDS011;62741;51.948;7.152;2023-01-01T06:38:48;6.13;;;1.70;;
74324;SDS011;62741;51.948;7.152;2023-01-01T06:41:28;4.20;;;2.25;;
74324;SDS011;62741;51.948;7.152;2023-01-01T06:43:56;3.70;;;1.80;;
74324;SDS011;62741;51.948;7.152;2023-01-01T06:46:25;5.55;;;1.95;;
74324;SDS011;62741;51.948;7.152;2023-01-01T06:48:55;3.63;;;1.60;;
74324;SDS011;62741;51.948;7.152;2023-01-01T06:51:26;4.13;;;1.45;;
74324;SDS011;62741;51.948;7.152;2023-01-01T06:53:56;4.53;;;1.90;;
74324;SDS011;62741;51.948;7.152;2023-01-01T06:56:24;4.93;;;2.10;;
74324;SDS011;62741;51.948;7.152;2023-01-01T06:58:52;4.40;;;2.15;;
74324;SDS011;62741;51.948;7.152;2023-01-01T07:01:20;5.40;;;1.60;;
74324;SDS011;62741;51.948;7.152;2023-01-01T07:03:50;4.68;;;1.92;;
74324;SDS011;62741;51.948;7.152;2023-01-01T07:06:21;3.35;;;1.50;;
74324;SDS011;62741;51.948;7.152;2023-01-01T07:08:52;2.78;;;1.30;;
74324;SDS011;62741;51.948;7.152;2023-01-01T07:11:20;4.40;;;1.50;;
74324;SDS011;62741;51.948;7.152;2023-01-01T07:13:47;2.67;;;1.70;;
74324;SDS011;62741;51.948;7.152;2023-01-01T07:16:15;3.70;;;1.42;;
74324;SDS011;62741;51.948;7.152;2023-01-01T07:18:43;3.85;;;1.70;;
74324;SDS011;62741;51.948;7.152;2023-01-01T07:21:27;4.97;;;1.98;;
74324;SDS011;62741;51.948;7.152;2023-01-01T07:23:58;6.82;;;1.88;;
74324;SDS011;62741;51.948;7.152;2023-01-01T07:26:30;4.13;;;1.48;;
74324;SDS011;62741;51.948;7.152;2023-01-01T07:28:58;4.13;;;1.85;;
74324;SDS011;62741;51.948;7.152;2023-01-01T07:31:26;2.83;;;1.40;;
74324;SDS011;62741;51.948;7.152;2023-01-01T07:33:53;2.83;;;1.38;;
74324;SDS011;62741;51.948;7.152;2023-01-01T07:36:20;3.55;;;1.55;;
74324;SDS011;62741;51.948;7.152;2023-01-01T07:38:47;3.92;;;1.65;;
74324;SDS011;62741;51.948;7.152;2023-01-01T07:41:16;4.50;;;1.45;;
74324;SDS011;62741;51.948;7.152;2023-01-01T07:43:43;3.75;;;1.50;;
74324;SDS011;62741;51.948;7.152;2023-01-01T07:46:10;2.83;;;1.58;;
74324;SDS011;62741;51.948;7.152;2023-01-01T07:48:40;3.15;;;1.45;;
74324;SDS011;62741;51.948;7.152;2023-01-01T07:51:07;3.15;;;1.50;;
74324;SDS011;62741;51.948;7.152;2023-01-01T07:53:34;2.00;;;1.25;;
74324;SDS011;62741;51.948;7.152;2023-01-01T07:56:01;3.08;;;1.50;;
74324;SDS011;62741;51.948;7.152;2023-01-01T07:58:30;5.50;;;2.63;;
74324;SDS011;62741;51.948;7.152;2023-01-01T08:03:24;3.50;;;1.65;;
74324;SDS011;62741;51.948;7.152;2023-01-01T08:05:51;2.97;;;1.42;;
74324;SDS011;62741;51.948;7.152;2023-01-01T08:08:18;3.05;;;1.30;;
74324;SDS011;62741;51.948;7.152;2023-01-01T08:10:45;4.57;;;1.50;;
74324;SDS011;62741;51.948;7.152;2023-01-01T08:13:12;5.10;;;1.92;;
74324;SDS011;62741;51.948;7.152;2023-01-01T08:15:40;2.67;;;1.40;;
74324;SDS011;62741;51.948;7.152;2023-01-01T08:18:08;3.13;;;1.20;;
74324;SDS011;62741;51.948;7.152;2023-01-01T08:20:36;3.75;;;1.50;;
74324;SDS011;62741;51.948;7.152;2023-01-01T08:23:03;2.58;;;1.55;;
74324;SDS011;62741;51.948;7.152;2023-01-01T08:25:30;4.53;;;1.67;;
74324;SDS011;62741;51.948;7.152;2023-01-01T08:27:57;4.07;;;1.50;;
74324;SDS011;62741;51.948;7.152;2023-01-01T08:30:24;2.72;;;1.77;;
74324;SDS011;62741;51.948;7.152;2023-01-01T08:32:54;3.30;;;1.48;;
74324;SDS011;62741;51.948;7.152;2023-01-01T08:35:21;3.63;;;1.30;;
74324;SDS011;62741;51.948;7.152;2023-01-01T08:37:48;1.88;;;1.17;;
74324;SDS011;62741;51.948;7.152;2023-01-01T08:40:15;4.78;;;1.92;;
74324;SDS011;62741;51.948;7.152;2023-01-01T08:42:42;3.92;;;1.50;;
74324;SDS011;62741;51.948;7.152;2023-01-01T08:45:09;3.50;;;1.48;;
74324;SDS011;62741;51.948;7.152;2023-01-01T08:47:36;3.17;;;1.38;;
74324;SDS011;62741;51.948;7.152;2023-01-01T08:50:05;4.55;;;1.27;;
74324;SDS011;62741;51.948;7.152;2023-01-01T08:52:34;3.45;;;1.58;;
74324;SDS011;62741;51.948;7.152;2023-01-01T08:55:01;4.80;;;1.27;;
74324;SDS011;62741;51.948;7.152;2023-01-01T08:57:28;2.10;;;1.15;;
74324;SDS011;62741;51.948;7.152;2023-01-01T08:59:56;2.35;;;1.15;;
74324;SDS011;62741;51.948;7.152;2023-01-01T09:02:23;3.80;;;2.10;;
74324;SDS011;62741;51.948;7.152;2023-01-01T09:04:50;4.35;;;1.88;;
74324;SDS011;62741;51.948;7.152;2023-01-01T09:07:19;4.85;;;1.67;;
74324;SDS011;62741;51.948;7.152;2023-01-01T09:09:46;2.10;;;1.23;;
74324;SDS011;62741;51.948;7.152;2023-01-01T09:12:14;2.80;;;1.50;;
74324;SDS011;62741;51.948;7.152;2023-01-01T09:17:11;2.85;;;1.30;;
74324;SDS011;62741;51.948;7.152;2023-01-01T09:19:39;2.00;;;1.30;;
74324;SDS011;62741;51.948;7.152;2023-01-01T09:22:07;2.17;;;1.20;;
74324;SDS011;62741;51.948;7.152;2023-01-01T09:24:36;3.00;;;1.40;;
74324;SDS011;62741;51.948;7.152;2023-01-01T09:27:03;2.83;;;1.30;;
74324;SDS011;62741;51.948;7.152;2023-01-01T09:29:36;2.70;;;1.30;;
74324;SDS011;62741;51.948;7.152;2023-01-01T09:32:05;4.32;;;2.17;;
74324;SDS011;62741;51.948;7.152;2023-01-01T09:34:32;2.35;;;1.20;;
74324;SDS011;62741;51.948;7.152;2023-01-01T09:36:59;1.70;;;1.10;;
74324;SDS011;62741;51.948;7.152;2023-01-01T09:39:26;4.32;;;1.42;;
74324;SDS011;62741;51.948;7.152;2023-01-01T09:44:52;2.75;;;1.30;;
74324;SDS011;62741;51.948;7.152;2023-01-01T09:47:34;2.78;;;0.93;;
74324;SDS011;62741;51.948;7.152;2023-01-01T09:50:07;3.78;;;1.58;;
74324;SDS011;62741;51.948;7.152;2023-01-01T09:52:42;4.68;;;1.50;;
74324;SDS011;62741;51.948;7.152;2023-01-01T09:55:18;5.03;;;2.00;;
74324;SDS011;62741;51.948;7.152;2023-01-01T09:57:53;2.45;;;1.00;;
74324;SDS011;62741;51.948;7.152;2023-01-01T10:00:21;3.05;;;1.40;;
74324;SDS011;62741;51.948;7.152;2023-01-01T10:02:53;3.47;;;1.60;;
74324;SDS011;62741;51.948;7.152;2023-01-01T10:05:38;2.67;;;1.30;;
74324;SDS011;62741;51.948;7.152;2023-01-01T10:08:19;3.17;;;1.67;;
74324;SDS011;62741;51.948;7.152;2023-01-01T10:11:00;3.35;;;1.40;;
74324;SDS011;62741;51.948;7.152;2023-01-01T10:13:43;4.03;;;1.65;;
74324;SDS011;62741;51.948;7.152;2023-01-01T10:16:13;3.58;;;1.55;;
74324;SDS011;62741;51.948;7.152;2023-01-01T10:18:53;2.80;;;1.35;;
74324;SDS011;62741;51.948;7.152;2023-01-01T10:21:26;2.83;;;1.30;;
74324;SDS011;62741;51.948;7.152;2023-01-01T10:24:00;2.13;;;1.33;;
74324;SDS011;62741;51.948;7.152;2023-01-01T10:26:36;1.73;;;1.13;;
74324;SDS011;62741;51.948;7.152;2023-01-01T10:29:08;2.30;;;1.20;;
74324;SDS011;62741;51.948;7.152;2023-01-01T10:31:43;3.83;;;1.33;;
74324;SDS011;62741;51.948;7.152;2023-01-01T10:34:14;3.00;;;1.50;;
74324;SDS011;62741;51.948;7.152;2023-01-01T10:36:44;3.33;;;1.50;;
74324;SDS011;62741;51.948;7.152;2023-01-01T10:39:14;5.05;;;1.55;;
74324;SDS011;62741;51.948;7.152;2023-01-01T10:41:44;4.68;;;1.63;;
74324;SDS011;62741;51.948;7.152;2023-01-01T10:44:14;3.97;;;1.67;;
74324;SDS011;62741;51.948;7.152;2023-01-01T10:46:47;4.70;;;1.58;;
74324;SDS011;62741;51.948;7.152;2023-01-01T10:49:22;3.25;;;1.45;;
74324;SDS011;62741;51.948;7.152;2023-01-01T10:51:49;2.40;;;1.33;;
74324;SDS011;62741;51.948;7.152;2023-01-01T10:54:23;3.90;;;1.70;;
74324;SDS011;62741;51.948;7.152;2023-01-01T10:56:58;4.65;;;1.70;;
74324;SDS011;62741;51.948;7.152;2023-01-01T10:59:41;3.75;;;2.00;;
74324;SDS011;62741;51.948;7.152;2023-01-01T11:02:14;3.45;;;1.77;;
74324;SDS011;62741;51.948;7.152;2023-01-01T11:04:49;6.15;;;1.92;;
74324;SDS011;62741;51.948;7.152;2023-01-01T11:07:39;3.92;;;1.95;;
74324;SDS011;62741;51.948;7.152;2023-01-01T11:10:11;3.25;;;1.60;;
74324;SDS011;62741;51.948;7.152;2023-01-01T11:12:49;3.70;;;1.88;;
74324;SDS011;62741;51.948;7.152;2023-01-01T11:15:22;3.30;;;1.85;;
74324;SDS011;62741;51.948;7.152;2023-01-01T11:18:01;3.45;;;1.75;;
74324;SDS011;62741;51.948;7.152;2023-01-01T11:20:30;4.40;;;1.88;;
74324;SDS011;62741;51.948;7.152;2023-01-01T11:25:55;5.95;;;2.08;;
74324;SDS011;62741;51.948;7.152;2023-01-01T11:28:27;3.03;;;1.60;;
74324;SDS011;62741;51.948;7.152;2023-01-01T11:31:12;3.13;;;1.70;;
74324;SDS011;62741;51.948;7.152;2023-01-01T11:33:43;3.58;;;2.03;;
74324;SDS011;62741;51.948;7.152;2023-01-01T11:36:22;3.63;;;1.70;;
74324;SDS011;62741;51.948;7.152;2023-01-01T11:39:05;3.80;;;1.95;;
74324;SDS011;62741;51.948;7.152;2023-01-01T11:41:51;3.72;;;1.92;;
74324;SDS011;62741;51.948;7.152;2023-01-01T11:44:23;3.47;;;1.98;;
74324;SDS011;62741;51.948;7.152;2023-01-01T11:49:30;3.88;;;1.95;;
74324;SDS011;62741;51.948;7.152;2023-01-01T11:51:59;4.07;;;1.80;;
74324;SDS011;62741;51.948;7.152;2023-01-01T11:54:46;3.92;;;1.95;;
74324;SDS011;62741;51.948;7.152;2023-01-01T11:57:16;3.47;;;1.85;;
74324;SDS011;62741;51.948;7.152;2023-01-01T11:59:49;2.35;;;1.50;;
74324;SDS011;62741;51.948;7.152;2023-01-01T12:02:28;3.50;;;1.60;;
74324;SDS011;62741;51.948;7.152;2023-01-01T12:05:04;3.33;;;1.83;;
74324;SDS011;62741;51.948;7.152;2023-01-01T12:07:42;4.88;;;2.08;;
74324;SDS011;62741;51.948;7.152;2023-01-01T12:10:12;3.40;;;1.60;;
74324;SDS011;62741;51.948;7.152;2023-01-01T12:12:49;3.00;;;1.43;;
74324;SDS011;62741;51.948;7.152;2023-01-01T12:15:24;4.35;;;1.90;;
74324;SDS011;62741;51.948;7.152;2023-01-01T12:18:00;3.92;;;1.90;;
74324;SDS011;62741;51.948;7.152;2023-01-01T12:20:37;3.42;;;1.58;;
74324;SDS011;62741;51.948;7.152;2023-01-01T12:23:14;3.97;;;2.23;;
74324;SDS011;62741;51.948;7.152;2023-01-01T12:25:45;3.90;;;1.88;;
74324;SDS011;62741;51.948;7.152;2023-01-01T12:28:28;3.17;;;1.80;;
74324;SDS011;62741;51.948;7.152;2023-01-01T12:31:09;4.45;;;2.08;;
74324;SDS011;62741;51.948;7.152;2023-01-01T12:34:03;4.88;;;1.98;;
74324;SDS011;62741;51.948;7.152;2023-01-01T12:36:41;6.82;;;1.85;;
74324;SDS011;62741;51.948;7.152;2023-01-01T12:43:02;5.45;;;1.83;;
74324;SDS011;62741;51.948;7.152;2023-01-01T12:48:55;4.55;;;1.70;;
74324;SDS011;62741;51.948;7.152;2023-01-01T12:52:10;4.93;;;2.50;;
74324;SDS011;62741;51.948;7.152;2023-01-01T12:55:13;5.15;;;2.10;;
74324;SDS011;62741;51.948;7.152;2023-01-01T12:58:13;5.15;;;1.58;;
74324;SDS011;62741;51.948;7.152;2023-01-01T13:00:50;4.07;;;2.00;;
74324;SDS011;62741;51.948;7.152;2023-01-01T13:03:23;3.55;;;1.63;;
74324;SDS011;62741;51.948;7.152;2023-01-01T13:05:57;3.63;;;1.98;;
74324;SDS011;62741;51.948;7.152;2023-01-01T13:08:26;3.55;;;1.80;;
74324;SDS011;62741;51.948;7.152;2023-01-01T13:10:54;3.75;;;1.98;;
74324;SDS011;62741;51.948;7.152;2023-01-01T13:13:34;3.63;;;1.88;;
74324;SDS011;62741;51.948;7.152;2023-01-01T13:16:01;3.95;;;1.60;;
74324;SDS011;62741;51.948;7.152;2023-01-01T13:18:31;4.15;;;2.08;;
74324;SDS011;62741;51.948;7.152;2023-01-01T13:21:03;8.38;;;2.53;;
74324;SDS011;62741;51.948;7.152;2023-01-01T13:23:46;2.90;;;1.85;;
74324;SDS011;62741;51.948;7.152;2023-01-01T13:26:36;3.70;;;1.65;;
74324;SDS011;62741;51.948;7.152;2023-01-01T13:32:11;5.65;;;2.05;;
74324;SDS011;62741;51.948;7.152;2023-01-01T13:37:44;3.80;;;1.58;;
74324;SDS011;62741;51.948;7.152;2023-01-01T13:40:29;6.10;;;2.20;;
74324;SDS011;62741;51.948;7.152;2023-01-01T13:43:17;3.80;;;1.67;;
74324;SDS011;62741;51.948;7.152;2023-01-01T13:45:53;3.67;;;1.73;;
74324;SDS011;62741;51.948;7.152;2023-01-01T13:48:27;3.67;;;1.95;;
74324;SDS011;62741;51.948;7.152;2023-01-01T13:51:21;4.90;;;2.30;;
74324;SDS011;62741;51.948;7.152;2023-01-01T13:54:23;4.05;;;1.60;;
74324;SDS011;62741;51.948;7.152;2023-01-01T13:57:31;4.50;;;2.13;;
74324;SDS011;62741;51.948;7.152;2023-01-01T14:00:29;3.53;;;1.63;;
74324;SDS011;62741;51.948;7.152;2023-01-01T14:03:07;4.40;;;1.63;;
74324;SDS011;62741;51.948;7.152;2023-01-01T14:05:44;4.28;;;2.00;;
74324;SDS011;62741;51.948;7.152;2023-01-01T14:11:18;5.07;;;2.20;;
74324;SDS011;62741;51.948;7.152;2023-01-01T14:13:49;5.28;;;1.50;;
74324;SDS011;62741;51.948;7.152;2023-01-01T14:16:18;5.07;;;1.70;;
74324;SDS011;62741;51.948;7.152;2023-01-01T14:18:47;7.05;;;2.25;;
74324;SDS011;62741;51.948;7.152;2023-01-01T14:21:19;3.78;;;1.63;;
74324;SDS011;62741;51.948;7.152;2023-01-01T14:23:52;3.85;;;2.10;;
74324;SDS011;62741;51.948;7.152;2023-01-01T14:26:30;4.43;;;1.52;;
74324;SDS011;62741;51.948;7.152;2023-01-01T14:29:05;4.85;;;2.20;;
74324;SDS011;62741;51.948;7.152;2023-01-01T14:31:35;4.40;;;2.08;;
74324;SDS011;62741;51.948;7.152;2023-01-01T14:34:15;2.75;;;1.45;;
74324;SDS011;62741;51.948;7.152;2023-01-01T14:36:55;4.10;;;1.80;;
74324;SDS011;62741;51.948;7.152;2023-01-01T14:39:27;5.25;;;1.85;;
74324;SDS011;62741;51.948;7.152;2023-01-01T14:41:58;5.28;;;2.05;;
74324;SDS011;62741;51.948;7.152;2023-01-01T14:44:34;6.47;;;2.20;;
74324;SDS011;62741;51.948;7.152;2023-01-01T14:47:09;6.60;;;2.75;;
74324;SDS011;62741;51.948;7.152;2023-01-01T14:49:49;4.88;;;2.20;;
74324;SDS011;62741;51.948;7.152;2023-01-01T14:52:17;5.78;;;2.45;;
74324;SDS011;62741;51.948;7.152;2023-01-01T14:54:51;4.55;;;1.67;;
74324;SDS011;62741;51.948;7.152;2023-01-01T14:57:23;4.10;;;2.03;;
74324;SDS011;62741;51.948;7.152;2023-01-01T14:59:55;4.05;;;1.80;;
74324;SDS011;62741;51.948;7.152;2023-01-01T15:02:22;3.72;;;1.88;;
74324;SDS011;62741;51.948;7.152;2023-01-01T15:04:53;3.85;;;2.10;;
74324;SDS011;62741;51.948;7.152;2023-01-01T15:07:21;6.60;;;2.10;;
74324;SDS011;62741;51.948;7.152;2023-01-01T15:09:50;3.55;;;1.73;;
74324;SDS011;62741;51.948;7.152;2023-01-01T15:12:19;2.90;;;1.85;;
74324;SDS011;62741;51.948;7.152;2023-01-01T15:14:49;3.95;;;1.90;;
74324;SDS011;62741;51.948;7.152;2023-01-01T15:17:21;3.55;;;1.70;;
74324;SDS011;62741;51.948;7.152;2023-01-01T15:20:01;3.97;;;1.92;;
74324;SDS011;62741;51.948;7.152;2023-01-01T15:22:31;4.13;;;1.60;;
74324;SDS011;62741;51.948;7.152;2023-01-01T15:25:03;2.92;;;1.52;;
74324;SDS011;62741;51.948;7.152;2023-01-01T15:27:38;2.80;;;1.60;;
74324;SDS011;62741;51.948;7.152;2023-01-01T15:30:06;5.15;;;2.30;;
74324;SDS011;62741;51.948;7.152;2023-01-01T15:32:48;4.80;;;1.70;;
74324;SDS011;62741;51.948;7.152;2023-01-01T15:35:17;3.60;;;1.67;;
74324;SDS011;62741;51.948;7.152;2023-01-01T15:37:47;4.82;;;2.45;;
74324;SDS011;62741;51.948;7.152;2023-01-01T15:40:32;4.13;;;1.90;;
74324;SDS011;62741;51.948;7.152;2023-01-01T15:43:19;4.15;;;2.00;;
74324;SDS011;62741;51.948;7.152;2023-01-01T15:45:52;4.80;;;1.65;;
74324;SDS011;62741;51.948;7.152;2023-01-01T15:48:33;5.53;;;2.97;;
74324;SDS011;62741;51.948;7.152;2023-01-01T15:53:50;2.45;;;1.33;;
74324;SDS011;62741;51.948;7.152;2023-01-01T15:56:22;3.90;;;1.85;;
74324;SDS011;62741;51.948;7.152;2023-01-01T15:58:54;5.80;;;2.75;;
74324;SDS011;62741;51.948;7.152;2023-01-01T16:01:33;3.75;;;1.52;;
74324;SDS011;62741;51.948;7.152;2023-01-01T16:04:06;4.57;;;2.05;;
74324;SDS011;62741;51.948;7.152;2023-01-01T16:06:41;4.75;;;1.95;;
74324;SDS011;62741;51.948;7.152;2023-01-01T16:09:10;3.97;;;1.45;;
74324;SDS011;62741;51.948;7.152;2023-01-01T16:14:16;3.25;;;1.70;;